sensor_id;sensor_type;location;lat;lon;timestamp;temperature;humidity
8332;DHT22;4203;48.144;14.118;2022-09-25T00:02:08;11.50;99.90
8332;DHT22;4203;48.144;14.118;2022-09-25T00:04:36;11.50;99.90
8332;DHT22;4203;48.144;14.118;2022-09-25T00:07:03;11.50;99.90
8332;DHT22;4203;48.144;14.118;2022-09-25T00:09:30;11.50;99.90
8332;DHT22;4203;48.144;14.118;2022-09-25T00:11:57;11.40;99.90
8332;DHT22;4203;48.144;14.118;2022-09-25T00:14:25;11.40;99.90
8332;DHT22;4203;48.144;14.118;2022-09-25T00:16:52;11.40;99.90
8332;DHT22;4203;48.144;14.118;2022-09-25T00:19:21;11.40;99.90
8332;DHT22;4203;48.144;14.118;2022-09-25T00:22:05;11.40;99.90
8332;DHT22;4203;48.144;14.118;2022-09-25T00:24:33;11.40;99.90
8332;DHT22;4203;48.144;14.118;2022-09-25T00:27:00;11.50;99.90
8332;DHT22;4203;48.144;14.118;2022-09-25T00:29:28;11.50;99.90
8332;DHT22;4203;48.144;14.118;2022-09-25T00:31:55;11.50;99.90
8332;DHT22;4203;48.144;14.118;2022-09-25T00:34:24;11.40;99.90
8332;DHT22;4203;48.144;14.118;2022-09-25T00:36:52;11.40;99.90
8332;DHT22;4203;48.144;14.118;2022-09-25T00:39:19;11.40;99.90
8332;DHT22;4203;48.144;14.118;2022-09-25T00:41:46;11.40;99.90
8332;DHT22;4203;48.144;14.118;2022-09-25T00:44:50;11.40;99.90
8332;DHT22;4203;48.144;14.118;2022-09-25T00:47:25;11.40;99.90
8332;DHT22;4203;48.144;14.118;2022-09-25T00:49:56;11.30;99.90
8332;DHT22;4203;48.144;14.118;2022-09-25T00:52:24;11.30;99.90
8332;DHT22;4203;48.144;14.118;2022-09-25T00:54:55;11.30;99.90
8332;DHT22;4203;48.144;14.118;2022-09-25T00:57:25;11.30;99.90
8332;DHT22;4203;48.144;14.118;2022-09-25T00:59:58;11.30;99.90
8332;DHT22;4203;48.144;14.118;2022-09-25T01:02:29;11.30;99.90
8332;DHT22;4203;48.144;14.118;2022-09-25T01:05:04;11.30;99.90
8332;DHT22;4203;48.144;14.118;2022-09-25T01:07:33;11.30;99.90
8332;DHT22;4203;48.144;14.118;2022-09-25T01:10:03;11.30;99.90
8332;DHT22;4203;48.144;14.118;2022-09-25T01:12:34;11.20;99.90
8332;DHT22;4203;48.144;14.118;2022-09-25T01:15:04;11.20;99.90
8332;DHT22;4203;48.144;14.118;2022-09-25T01:17:36;11.20;99.90
8332;DHT22;4203;48.144;14.118;2022-09-25T01:20:15;11.20;99.90
8332;DHT22;4203;48.144;14.118;2022-09-25T01:22:54;11.20;99.90
8332;DHT22;4203;48.144;14.118;2022-09-25T01:25:37;11.20;99.90
8332;DHT22;4203;48.144;14.118;2022-09-25T01:31:08;11.20;99.90
8332;DHT22;4203;48.144;14.118;2022-09-25T01:33:44;11.20;99.90
8332;DHT22;4203;48.144;14.118;2022-09-25T01:36:15;11.20;99.90
8332;DHT22;4203;48.144;14.118;2022-09-25T01:38:48;11.30;99.90
8332;DHT22;4203;48.144;14.118;2022-09-25T01:41:19;11.30;99.90
8332;DHT22;4203;48.144;14.118;2022-09-25T01:43:52;11.30;99.90
8332;DHT22;4203;48.144;14.118;2022-09-25T01:46:27;11.30;99.90
8332;DHT22;4203;48.144;14.118;2022-09-25T01:48:58;11.20;99.90
8332;DHT22;4203;48.144;14.118;2022-09-25T01:51:29;11.20;99.90
8332;DHT22;4203;48.144;14.118;2022-09-25T01:54:01;11.20;99.90
8332;DHT22;4203;48.144;14.118;2022-09-25T01:56:31;11.20;99.90
8332;DHT22;4203;48.144;14.118;2022-09-25T01:59:05;11.20;99.90
8332;DHT22;4203;48.144;14.118;2022-09-25T02:01:37;11.10;99.90
8332;DHT22;4203;48.144;14.118;2022-09-25T02:04:09;12.00;99.90
8332;DHT22;4203;48.144;14.118;2022-09-25T02:06:40;11.20;99.90
8332;DHT22;4203;48.144;14.118;2022-09-25T02:09:13;11.20;99.90
8332;DHT22;4203;48.144;14.118;2022-09-25T02:11:44;11.20;99.90
8332;DHT22;4203;48.144;14.118;2022-09-25T02:14:19;11.20;99.90
8332;DHT22;4203;48.144;14.118;2022-09-25T02:16:53;11.20;99.90
8332;DHT22;4203;48.144;14.118;2022-09-25T02:19:22;11.20;99.90
8332;DHT22;4203;48.144;14.118;2022-09-25T02:22:10;11.20;99.90
8332;DHT22;4203;48.144;14.118;2022-09-25T02:24:44;11.20;99.90
8332;DHT22;4203;48.144;14.118;2022-09-25T02:27:14;11.20;99.90
8332;DHT22;4203;48.144;14.118;2022-09-25T02:29:43;11.20;99.90
8332;DHT22;4203;48.144;14.118;2022-09-25T02:32:13;11.20;99.90
8332;DHT22;4203;48.144;14.118;2022-09-25T02:34:41;11.20;99.90
8332;DHT22;4203;48.144;14.118;2022-09-25T02:37:09;11.20;99.90
8332;DHT22;4203;48.144;14.118;2022-09-25T02:39:37;11.20;99.90
8332;DHT22;4203;48.144;14.118;2022-09-25T02:42:17;11.20;99.90
8332;DHT22;4203;48.144;14.118;2022-09-25T02:45:00;10.50;99.90
8332;DHT22;4203;48.144;14.118;2022-09-25T02:47:36;11.20;99.90
8332;DHT22;4203;48.144;14.118;2022-09-25T02:50:14;11.20;99.90
8332;DHT22;4203;48.144;14.118;2022-09-25T02:52:47;11.20;99.90
8332;DHT22;4203;48.144;14.118;2022-09-25T02:55:20;11.20;99.90
8332;DHT22;4203;48.144;14.118;2022-09-25T02:57:55;11.20;99.90
8332;DHT22;4203;48.144;14.118;2022-09-25T03:00:22;11.20;99.90
8332;DHT22;4203;48.144;14.118;2022-09-25T03:02:54;11.30;99.90
8332;DHT22;4203;48.144;14.118;2022-09-25T03:05:25;11.30;99.90
8332;DHT22;4203;48.144;14.118;2022-09-25T03:07:53;11.30;99.90
8332;DHT22;4203;48.144;14.118;2022-09-25T03:10:38;11.20;99.90
8332;DHT22;4203;48.144;14.118;2022-09-25T03:13:18;11.20;99.90
8332;DHT22;4203;48.144;14.118;2022-09-25T03:15:49;11.20;99.90
8332;DHT22;4203;48.144;14.118;2022-09-25T03:18:18;11.20;99.90
8332;DHT22;4203;48.144;14.118;2022-09-25T03:20:46;11.10;99.90
8332;DHT22;4203;48.144;14.118;2022-09-25T03:23:14;11.10;99.90
8332;DHT22;4203;48.144;14.118;2022-09-25T03:25:41;11.10;99.90
8332;DHT22;4203;48.144;14.118;2022-09-25T03:28:11;11.10;99.90
8332;DHT22;4203;48.144;14.118;2022-09-25T03:30:39;11.10;99.90
8332;DHT22;4203;48.144;14.118;2022-09-25T03:33:06;11.10;99.90
8332;DHT22;4203;48.144;14.118;2022-09-25T03:35:37;11.10;99.90
8332;DHT22;4203;48.144;14.118;2022-09-25T03:38:04;11.00;99.90
8332;DHT22;4203;48.144;14.118;2022-09-25T03:40:33;11.00;99.90
8332;DHT22;4203;48.144;14.118;2022-09-25T03:43:00;11.00;99.90
8332;DHT22;4203;48.144;14.118;2022-09-25T03:45:27;11.00;99.90
8332;DHT22;4203;48.144;14.118;2022-09-25T03:47:55;11.00;99.90
8332;DHT22;4203;48.144;14.118;2022-09-25T03:50:22;11.00;99.90
8332;DHT22;4203;48.144;14.118;2022-09-25T03:52:51;10.90;99.90
8332;DHT22;4203;48.144;14.118;2022-09-25T03:55:19;11.00;99.90
8332;DHT22;4203;48.144;14.118;2022-09-25T03:57:47;10.90;99.90
8332;DHT22;4203;48.144;14.118;2022-09-25T04:00:15;11.00;99.90
8332;DHT22;4203;48.144;14.118;2022-09-25T04:02:42;11.00;99.90
8332;DHT22;4203;48.144;14.118;2022-09-25T04:05:09;11.00;99.90
8332;DHT22;4203;48.144;14.118;2022-09-25T04:07:36;11.00;99.90
8332;DHT22;4203;48.144;14.118;2022-09-25T04:10:06;10.90;99.90
8332;DHT22;4203;48.144;14.118;2022-09-25T04:12:34;10.90;99.90
8332;DHT22;4203;48.144;14.118;2022-09-25T04:15:01;10.80;99.90
8332;DHT22;4203;48.144;14.118;2022-09-25T04:17:29;10.90;99.90
8332;DHT22;4203;48.144;14.118;2022-09-25T04:19:56;10.80;99.90
8332;DHT22;4203;48.144;14.118;2022-09-25T04:22:23;10.80;99.90
8332;DHT22;4203;48.144;14.118;2022-09-25T04:24:50;10.80;99.90
8332;DHT22;4203;48.144;14.118;2022-09-25T04:27:21;10.80;99.90
8332;DHT22;4203;48.144;14.118;2022-09-25T04:29:49;10.80;99.90
8332;DHT22;4203;48.144;14.118;2022-09-25T04:32:16;10.80;99.90
8332;DHT22;4203;48.144;14.118;2022-09-25T04:35:01;10.80;99.90
8332;DHT22;4203;48.144;14.118;2022-09-25T04:37:28;10.80;99.90
8332;DHT22;4203;48.144;14.118;2022-09-25T04:39:56;10.80;99.90
8332;DHT22;4203;48.144;14.118;2022-09-25T04:42:25;10.80;99.90
8332;DHT22;4203;48.144;14.118;2022-09-25T04:44:53;10.80;99.90
8332;DHT22;4203;48.144;14.118;2022-09-25T04:47:21;10.80;99.90
8332;DHT22;4203;48.144;14.118;2022-09-25T04:49:49;10.80;99.90
8332;DHT22;4203;48.144;14.118;2022-09-25T04:52:17;10.80;99.90
8332;DHT22;4203;48.144;14.118;2022-09-25T04:54:45;10.80;99.90
8332;DHT22;4203;48.144;14.118;2022-09-25T04:57:14;10.80;99.90
8332;DHT22;4203;48.144;14.118;2022-09-25T04:59:43;10.80;99.90
8332;DHT22;4203;48.144;14.118;2022-09-25T05:02:10;10.90;99.90
8332;DHT22;4203;48.144;14.118;2022-09-25T05:04:38;10.80;99.90
8332;DHT22;4203;48.144;14.118;2022-09-25T05:07:06;10.90;99.90
8332;DHT22;4203;48.144;14.118;2022-09-25T05:09:33;10.90;99.90
8332;DHT22;4203;48.144;14.118;2022-09-25T05:12:02;10.90;99.90
8332;DHT22;4203;48.144;14.118;2022-09-25T05:14:30;10.90;99.90
8332;DHT22;4203;48.144;14.118;2022-09-25T05:16:58;11.00;99.90
8332;DHT22;4203;48.144;14.118;2022-09-25T05:19:26;11.00;99.90
8332;DHT22;4203;48.144;14.118;2022-09-25T05:21:53;11.00;99.90
8332;DHT22;4203;48.144;14.118;2022-09-25T05:24:20;11.10;99.90
8332;DHT22;4203;48.144;14.118;2022-09-25T05:26:48;11.10;99.90
8332;DHT22;4203;48.144;14.118;2022-09-25T05:29:15;11.10;99.90
8332;DHT22;4203;48.144;14.118;2022-09-25T05:31:42;11.20;99.90
8332;DHT22;4203;48.144;14.118;2022-09-25T05:34:15;11.20;99.90
8332;DHT22;4203;48.144;14.118;2022-09-25T05:36:42;11.20;99.90
8332;DHT22;4203;48.144;14.118;2022-09-25T05:39:09;11.20;99.90
8332;DHT22;4203;48.144;14.118;2022-09-25T05:41:37;11.30;99.90
8332;DHT22;4203;48.144;14.118;2022-09-25T05:44:04;11.30;99.90
8332;DHT22;4203;48.144;14.118;2022-09-25T05:46:34;11.30;99.90
8332;DHT22;4203;48.144;14.118;2022-09-25T05:49:02;11.40;99.90
8332;DHT22;4203;48.144;14.118;2022-09-25T05:51:31;11.40;99.90
8332;DHT22;4203;48.144;14.118;2022-09-25T05:53:58;11.40;99.90
8332;DHT22;4203;48.144;14.118;2022-09-25T05:56:26;11.50;99.90
8332;DHT22;4203;48.144;14.118;2022-09-25T05:58:53;11.50;99.90
8332;DHT22;4203;48.144;14.118;2022-09-25T06:01:23;11.50;99.90
8332;DHT22;4203;48.144;14.118;2022-09-25T06:03:50;11.60;99.90
8332;DHT22;4203;48.144;14.118;2022-09-25T06:06:18;11.60;99.90
8332;DHT22;4203;48.144;14.118;2022-09-25T06:08:46;11.60;99.90
8332;DHT22;4203;48.144;14.118;2022-09-25T06:11:14;11.70;99.90
8332;DHT22;4203;48.144;14.118;2022-09-25T06:13:41;11.70;99.90
8332;DHT22;4203;48.144;14.118;2022-09-25T06:16:14;11.80;99.90
8332;DHT22;4203;48.144;14.118;2022-09-25T06:18:44;11.90;99.90
8332;DHT22;4203;48.144;14.118;2022-09-25T06:21:12;11.90;99.90
8332;DHT22;4203;48.144;14.118;2022-09-25T06:23:40;12.00;99.90
8332;DHT22;4203;48.144;14.118;2022-09-25T06:26:11;12.00;99.90
8332;DHT22;4203;48.144;14.118;2022-09-25T06:28:38;12.10;99.90
8332;DHT22;4203;48.144;14.118;2022-09-25T06:31:06;12.10;99.90
8332;DHT22;4203;48.144;14.118;2022-09-25T06:33:33;12.10;99.90
8332;DHT22;4203;48.144;14.118;2022-09-25T06:36:00;12.10;99.90
8332;DHT22;4203;48.144;14.118;2022-09-25T06:38:28;12.20;99.90
8332;DHT22;4203;48.144;14.118;2022-09-25T06:40:58;12.30;99.90
8332;DHT22;4203;48.144;14.118;2022-09-25T06:43:27;12.50;99.90
8332;DHT22;4203;48.144;14.118;2022-09-25T06:45:58;12.70;99.90
8332;DHT22;4203;48.144;14.118;2022-09-25T06:48:27;12.80;99.90
8332;DHT22;4203;48.144;14.118;2022-09-25T06:50:56;12.90;99.90
8332;DHT22;4203;48.144;14.118;2022-09-25T06:53:25;13.00;99.90
8332;DHT22;4203;48.144;14.118;2022-09-25T06:55:55;13.10;99.90
8332;DHT22;4203;48.144;14.118;2022-09-25T06:58:23;13.30;99.90
8332;DHT22;4203;48.144;14.118;2022-09-25T07:00:54;13.50;99.90
8332;DHT22;4203;48.144;14.118;2022-09-25T07:03:23;13.80;99.90
8332;DHT22;4203;48.144;14.118;2022-09-25T07:06:08;14.00;99.90
8332;DHT22;4203;48.144;14.118;2022-09-25T07:08:36;14.30;99.90
8332;DHT22;4203;48.144;14.118;2022-09-25T07:11:05;14.50;99.90
8332;DHT22;4203;48.144;14.118;2022-09-25T07:13:33;14.60;99.90
8332;DHT22;4203;48.144;14.118;2022-09-25T07:16:04;14.50;99.90
8332;DHT22;4203;48.144;14.118;2022-09-25T07:18:32;14.40;99.90
8332;DHT22;4203;48.144;14.118;2022-09-25T07:21:01;14.30;99.90
8332;DHT22;4203;48.144;14.118;2022-09-25T07:23:28;14.30;99.90
8332;DHT22;4203;48.144;14.118;2022-09-25T07:26:04;14.40;99.90
8332;DHT22;4203;48.144;14.118;2022-09-25T07:28:32;14.70;99.90
8332;DHT22;4203;48.144;14.118;2022-09-25T07:31:11;14.70;99.90
8332;DHT22;4203;48.144;14.118;2022-09-25T07:33:38;14.80;99.90
8332;DHT22;4203;48.144;14.118;2022-09-25T07:36:06;14.90;99.90
8332;DHT22;4203;48.144;14.118;2022-09-25T07:38:33;15.00;99.90
8332;DHT22;4203;48.144;14.118;2022-09-25T07:41:02;14.90;99.90
8332;DHT22;4203;48.144;14.118;2022-09-25T07:43:30;14.90;99.90
8332;DHT22;4203;48.144;14.118;2022-09-25T07:45:57;14.80;99.90
8332;DHT22;4203;48.144;14.118;2022-09-25T07:48:26;14.70;99.90
8332;DHT22;4203;48.144;14.118;2022-09-25T07:50:59;14.70;99.90
8332;DHT22;4203;48.144;14.118;2022-09-25T07:53:26;14.70;99.90
8332;DHT22;4203;48.144;14.118;2022-09-25T07:55:56;14.90;99.90
8332;DHT22;4203;48.144;14.118;2022-09-25T07:58:24;15.10;99.90
8332;DHT22;4203;48.144;14.118;2022-09-25T08:00:51;15.30;99.90
8332;DHT22;4203;48.144;14.118;2022-09-25T08:03:19;15.80;99.90
8332;DHT22;4203;48.144;14.118;2022-09-25T08:05:47;16.20;99.90
8332;DHT22;4203;48.144;14.118;2022-09-25T08:08:15;16.70;99.90
8332;DHT22;4203;48.144;14.118;2022-09-25T08:10:42;16.80;99.90
8332;DHT22;4203;48.144;14.118;2022-09-25T08:13:09;16.70;99.90
8332;DHT22;4203;48.144;14.118;2022-09-25T08:15:36;16.40;99.90
8332;DHT22;4203;48.144;14.118;2022-09-25T08:18:03;16.30;99.90
8332;DHT22;4203;48.144;14.118;2022-09-25T08:20:30;16.20;99.90
8332;DHT22;4203;48.144;14.118;2022-09-25T08:22:59;16.20;99.90
8332;DHT22;4203;48.144;14.118;2022-09-25T08:25:26;16.40;99.90
8332;DHT22;4203;48.144;14.118;2022-09-25T08:27:53;16.40;99.90
8332;DHT22;4203;48.144;14.118;2022-09-25T08:30:20;16.60;99.90
8332;DHT22;4203;48.144;14.118;2022-09-25T08:32:47;16.70;99.90
8332;DHT22;4203;48.144;14.118;2022-09-25T08:35:17;16.60;99.90
8332;DHT22;4203;48.144;14.118;2022-09-25T08:37:44;16.50;99.90
8332;DHT22;4203;48.144;14.118;2022-09-25T08:40:19;16.50;99.90
8332;DHT22;4203;48.144;14.118;2022-09-25T08:42:49;16.60;99.90
8332;DHT22;4203;48.144;14.118;2022-09-25T08:45:25;16.70;99.90
8332;DHT22;4203;48.144;14.118;2022-09-25T08:48:17;16.80;99.90
8332;DHT22;4203;48.144;14.118;2022-09-25T08:51:03;16.70;99.90
8332;DHT22;4203;48.144;14.118;2022-09-25T08:53:32;16.70;99.90
8332;DHT22;4203;48.144;14.118;2022-09-25T08:56:04;16.70;99.90
8332;DHT22;4203;48.144;14.118;2022-09-25T08:58:46;16.60;99.90
8332;DHT22;4203;48.144;14.118;2022-09-25T09:01:15;16.60;99.90
8332;DHT22;4203;48.144;14.118;2022-09-25T09:03:47;16.50;99.90
8332;DHT22;4203;48.144;14.118;2022-09-25T09:06:16;16.60;99.90
8332;DHT22;4203;48.144;14.118;2022-09-25T09:08:47;16.70;99.90
8332;DHT22;4203;48.144;14.118;2022-09-25T09:11:21;16.70;99.90
8332;DHT22;4203;48.144;14.118;2022-09-25T09:13:51;16.80;99.90
8332;DHT22;4203;48.144;14.118;2022-09-25T09:16:27;16.90;99.90
8332;DHT22;4203;48.144;14.118;2022-09-25T09:18:57;17.00;99.90
8332;DHT22;4203;48.144;14.118;2022-09-25T09:21:33;17.10;99.90
8332;DHT22;4203;48.144;14.118;2022-09-25T09:24:06;17.20;99.90
8332;DHT22;4203;48.144;14.118;2022-09-25T09:26:46;17.30;99.90
8332;DHT22;4203;48.144;14.118;2022-09-25T09:29:27;17.40;99.90
8332;DHT22;4203;48.144;14.118;2022-09-25T09:32:10;17.60;99.90
8332;DHT22;4203;48.144;14.118;2022-09-25T09:34:55;17.70;99.90
8332;DHT22;4203;48.144;14.118;2022-09-25T09:37:28;17.70;99.90
8332;DHT22;4203;48.144;14.118;2022-09-25T09:40:11;17.60;99.90
8332;DHT22;4203;48.144;14.118;2022-09-25T09:42:47;17.70;99.90
8332;DHT22;4203;48.144;14.118;2022-09-25T09:45:22;17.80;99.90
8332;DHT22;4203;48.144;14.118;2022-09-25T09:48:00;17.90;99.90
8332;DHT22;4203;48.144;14.118;2022-09-25T09:50:35;18.10;99.90
8332;DHT22;4203;48.144;14.118;2022-09-25T09:53:11;18.20;99.90
8332;DHT22;4203;48.144;14.118;2022-09-25T09:55:44;18.30;99.90
8332;DHT22;4203;48.144;14.118;2022-09-25T09:58:18;18.40;99.90
8332;DHT22;4203;48.144;14.118;2022-09-25T10:00:48;18.50;99.90
8332;DHT22;4203;48.144;14.118;2022-09-25T10:03:19;18.60;99.90
8332;DHT22;4203;48.144;14.118;2022-09-25T10:05:49;18.60;99.90
8332;DHT22;4203;48.144;14.118;2022-09-25T10:08:18;18.60;99.90
8332;DHT22;4203;48.144;14.118;2022-09-25T10:10:48;18.70;99.90
8332;DHT22;4203;48.144;14.118;2022-09-25T10:13:22;19.00;99.90
8332;DHT22;4203;48.144;14.118;2022-09-25T10:15:52;19.40;99.90
8332;DHT22;4203;48.144;14.118;2022-09-25T10:18:24;19.60;99.90
8332;DHT22;4203;48.144;14.118;2022-09-25T10:20:57;19.70;99.90
8332;DHT22;4203;48.144;14.118;2022-09-25T10:23:34;19.70;99.90
8332;DHT22;4203;48.144;14.118;2022-09-25T10:26:02;19.80;99.90
8332;DHT22;4203;48.144;14.118;2022-09-25T10:28:32;20.20;99.90
8332;DHT22;4203;48.144;14.118;2022-09-25T10:31:02;20.40;99.90
8332;DHT22;4203;48.144;14.118;2022-09-25T10:33:32;20.40;99.90
8332;DHT22;4203;48.144;14.118;2022-09-25T10:36:00;20.60;99.90
8332;DHT22;4203;48.144;14.118;2022-09-25T10:38:36;20.90;99.90
8332;DHT22;4203;48.144;14.118;2022-09-25T10:41:09;21.70;99.90
8332;DHT22;4203;48.144;14.118;2022-09-25T10:43:51;21.90;99.90
8332;DHT22;4203;48.144;14.118;2022-09-25T10:46:27;21.80;99.90
8332;DHT22;4203;48.144;14.118;2022-09-25T10:49:17;21.90;99.90
8332;DHT22;4203;48.144;14.118;2022-09-25T10:52:03;21.90;99.90
8332;DHT22;4203;48.144;14.118;2022-09-25T10:54:31;22.10;99.90
8332;DHT22;4203;48.144;14.118;2022-09-25T10:56:59;22.60;99.90
8332;DHT22;4203;48.144;14.118;2022-09-25T10:59:28;22.90;99.90
8332;DHT22;4203;48.144;14.118;2022-09-25T11:01:55;22.80;99.90
8332;DHT22;4203;48.144;14.118;2022-09-25T11:04:25;22.40;99.90
8332;DHT22;4203;48.144;14.118;2022-09-25T11:06:58;22.20;99.90
8332;DHT22;4203;48.144;14.118;2022-09-25T11:09:27;22.10;99.90
8332;DHT22;4203;48.144;14.118;2022-09-25T11:12:06;21.90;99.90
8332;DHT22;4203;48.144;14.118;2022-09-25T11:14:35;21.60;99.90
8332;DHT22;4203;48.144;14.118;2022-09-25T11:17:04;21.70;99.90
8332;DHT22;4203;48.144;14.118;2022-09-25T11:19:32;21.80;99.90
8332;DHT22;4203;48.144;14.118;2022-09-25T11:22:09;22.20;99.90
8332;DHT22;4203;48.144;14.118;2022-09-25T11:24:56;22.20;99.90
8332;DHT22;4203;48.144;14.118;2022-09-25T11:27:31;22.30;99.90
8332;DHT22;4203;48.144;14.118;2022-09-25T11:30:05;22.30;99.90
8332;DHT22;4203;48.144;14.118;2022-09-25T11:32:38;22.30;99.90
8332;DHT22;4203;48.144;14.118;2022-09-25T11:35:25;22.60;99.90
8332;DHT22;4203;48.144;14.118;2022-09-25T11:38:04;22.90;99.90
8332;DHT22;4203;48.144;14.118;2022-09-25T11:40:41;23.00;99.90
8332;DHT22;4203;48.144;14.118;2022-09-25T11:43:36;22.90;99.90
8332;DHT22;4203;48.144;14.118;2022-09-25T11:46:18;22.60;99.90
8332;DHT22;4203;48.144;14.118;2022-09-25T11:48:54;22.30;99.90
8332;DHT22;4203;48.144;14.118;2022-09-25T11:51:37;22.00;99.90
8332;DHT22;4203;48.144;14.118;2022-09-25T11:54:18;21.80;99.90
8332;DHT22;4203;48.144;14.118;2022-09-25T11:56:50;21.70;99.90
8332;DHT22;4203;48.144;14.118;2022-09-25T11:59:36;21.60;99.90
8332;DHT22;4203;48.144;14.118;2022-09-25T12:02:16;21.50;99.90
8332;DHT22;4203;48.144;14.118;2022-09-25T12:05:00;21.50;99.90
8332;DHT22;4203;48.144;14.118;2022-09-25T12:07:39;21.50;99.90
8332;DHT22;4203;48.144;14.118;2022-09-25T12:10:29;21.40;99.90
8332;DHT22;4203;48.144;14.118;2022-09-25T12:13:07;21.50;99.90
8332;DHT22;4203;48.144;14.118;2022-09-25T12:15:50;21.50;99.90
8332;DHT22;4203;48.144;14.118;2022-09-25T12:18:29;21.80;99.90
8332;DHT22;4203;48.144;14.118;2022-09-25T12:21:01;22.40;99.90
8332;DHT22;4203;48.144;14.118;2022-09-25T12:23:32;22.80;99.90
8332;DHT22;4203;48.144;14.118;2022-09-25T12:26:14;22.90;99.90
8332;DHT22;4203;48.144;14.118;2022-09-25T12:28:57;22.90;99.90
8332;DHT22;4203;48.144;14.118;2022-09-25T12:31:37;22.90;99.90
8332;DHT22;4203;48.144;14.118;2022-09-25T12:34:15;23.20;99.90
8332;DHT22;4203;48.144;14.118;2022-09-25T12:36:53;23.80;99.90
8332;DHT22;4203;48.144;14.118;2022-09-25T12:39:28;24.00;99.90
8332;DHT22;4203;48.144;14.118;2022-09-25T12:42:04;23.80;99.90
8332;DHT22;4203;48.144;14.118;2022-09-25T12:44:39;23.30;99.90
8332;DHT22;4203;48.144;14.118;2022-09-25T12:47:11;22.80;99.90
8332;DHT22;4203;48.144;14.118;2022-09-25T12:49:46;22.40;99.90
8332;DHT22;4203;48.144;14.118;2022-09-25T12:52:19;22.20;99.90
8332;DHT22;4203;48.144;14.118;2022-09-25T12:54:52;22.10;99.90
8332;DHT22;4203;48.144;14.118;2022-09-25T12:57:24;21.90;99.90
8332;DHT22;4203;48.144;14.118;2022-09-25T12:59:56;21.80;99.90
8332;DHT22;4203;48.144;14.118;2022-09-25T13:02:29;21.70;99.90
8332;DHT22;4203;48.144;14.118;2022-09-25T13:05:06;21.60;99.90
8332;DHT22;4203;48.144;14.118;2022-09-25T13:07:41;21.40;99.90
8332;DHT22;4203;48.144;14.118;2022-09-25T13:10:25;21.30;99.90
8332;DHT22;4203;48.144;14.118;2022-09-25T13:12:55;21.10;99.90
8332;DHT22;4203;48.144;14.118;2022-09-25T13:15:27;21.00;99.90
8332;DHT22;4203;48.144;14.118;2022-09-25T13:17:54;20.90;99.90
8332;DHT22;4203;48.144;14.118;2022-09-25T13:20:46;20.70;99.90
8332;DHT22;4203;48.144;14.118;2022-09-25T13:23:26;20.50;99.90
8332;DHT22;4203;48.144;14.118;2022-09-25T13:25:55;20.40;99.90
8332;DHT22;4203;48.144;14.118;2022-09-25T13:28:27;20.30;99.90
8332;DHT22;4203;48.144;14.118;2022-09-25T13:31:03;20.20;99.90
8332;DHT22;4203;48.144;14.118;2022-09-25T13:33:36;20.10;99.90
8332;DHT22;4203;48.144;14.118;2022-09-25T13:36:29;20.20;99.90
8332;DHT22;4203;48.144;14.118;2022-09-25T13:38:59;20.40;99.90
8332;DHT22;4203;48.144;14.118;2022-09-25T13:41:51;20.50;99.90
8332;DHT22;4203;48.144;14.118;2022-09-25T13:44:48;20.70;99.90
8332;DHT22;4203;48.144;14.118;2022-09-25T13:50:38;20.70;99.90
8332;DHT22;4203;48.144;14.118;2022-09-25T13:53:23;20.70;99.90
8332;DHT22;4203;48.144;14.118;2022-09-25T13:56:27;20.70;99.90
8332;DHT22;4203;48.144;14.118;2022-09-25T13:59:20;20.80;99.90
8332;DHT22;4203;48.144;14.118;2022-09-25T14:01:50;20.70;99.90
8332;DHT22;4203;48.144;14.118;2022-09-25T14:04:32;20.60;99.90
8332;DHT22;4203;48.144;14.118;2022-09-25T14:07:15;20.60;99.90
8332;DHT22;4203;48.144;14.118;2022-09-25T14:09:47;20.40;99.90
8332;DHT22;4203;48.144;14.118;2022-09-25T14:12:35;20.30;99.90
8332;DHT22;4203;48.144;14.118;2022-09-25T14:15:15;20.10;99.90
8332;DHT22;4203;48.144;14.118;2022-09-25T14:17:46;20.10;99.90
8332;DHT22;4203;48.144;14.118;2022-09-25T14:20:30;20.00;99.90
8332;DHT22;4203;48.144;14.118;2022-09-25T14:23:00;19.90;99.90
8332;DHT22;4203;48.144;14.118;2022-09-25T14:25:31;19.70;99.90
8332;DHT22;4203;48.144;14.118;2022-09-25T14:28:02;19.60;99.90
8332;DHT22;4203;48.144;14.118;2022-09-25T14:30:30;19.50;99.90
8332;DHT22;4203;48.144;14.118;2022-09-25T14:33:32;19.40;99.90
8332;DHT22;4203;48.144;14.118;2022-09-25T14:36:08;19.40;99.90
8332;DHT22;4203;48.144;14.118;2022-09-25T14:38:53;19.30;99.90
8332;DHT22;4203;48.144;14.118;2022-09-25T14:41:52;19.20;99.90
8332;DHT22;4203;48.144;14.118;2022-09-25T14:44:38;19.10;99.90
8332;DHT22;4203;48.144;14.118;2022-09-25T14:47:10;19.00;99.90
8332;DHT22;4203;48.144;14.118;2022-09-25T14:49:41;19.00;99.90
8332;DHT22;4203;48.144;14.118;2022-09-25T14:52:13;18.90;99.90
8332;DHT22;4203;48.144;14.118;2022-09-25T14:54:42;18.80;99.90
8332;DHT22;4203;48.144;14.118;2022-09-25T14:57:16;18.80;99.90
8332;DHT22;4203;48.144;14.118;2022-09-25T14:59:48;18.80;99.90
8332;DHT22;4203;48.144;14.118;2022-09-25T15:02:18;18.80;99.90
8332;DHT22;4203;48.144;14.118;2022-09-25T15:04:48;18.80;99.90
8332;DHT22;4203;48.144;14.118;2022-09-25T15:07:17;18.80;99.90
8332;DHT22;4203;48.144;14.118;2022-09-25T15:09:46;18.80;99.90
8332;DHT22;4203;48.144;14.118;2022-09-25T15:12:19;18.80;99.90
8332;DHT22;4203;48.144;14.118;2022-09-25T15:15:03;18.80;99.90
8332;DHT22;4203;48.144;14.118;2022-09-25T15:17:33;18.70;99.90
8332;DHT22;4203;48.144;14.118;2022-09-25T15:20:05;18.60;99.90
8332;DHT22;4203;48.144;14.118;2022-09-25T15:22:36;18.40;99.90
8332;DHT22;4203;48.144;14.118;2022-09-25T15:25:06;17.90;99.90
8332;DHT22;4203;48.144;14.118;2022-09-25T15:27:39;18.10;99.90
8332;DHT22;4203;48.144;14.118;2022-09-25T15:30:13;18.00;99.90
8332;DHT22;4203;48.144;14.118;2022-09-25T15:32:42;17.90;99.90
8332;DHT22;4203;48.144;14.118;2022-09-25T15:35:17;17.80;99.90
8332;DHT22;4203;48.144;14.118;2022-09-25T15:37:45;17.70;99.90
8332;DHT22;4203;48.144;14.118;2022-09-25T15:40:23;17.60;99.90
8332;DHT22;4203;48.144;14.118;2022-09-25T15:42:54;17.50;99.90
8332;DHT22;4203;48.144;14.118;2022-09-25T15:45:40;17.40;99.90
8332;DHT22;4203;48.144;14.118;2022-09-25T15:48:21;17.40;99.90
8332;DHT22;4203;48.144;14.118;2022-09-25T15:50:50;17.30;99.90
8332;DHT22;4203;48.144;14.118;2022-09-25T15:53:20;17.30;99.90
8332;DHT22;4203;48.144;14.118;2022-09-25T15:55:49;17.30;99.90
8332;DHT22;4203;48.144;14.118;2022-09-25T15:58:18;17.30;99.90
8332;DHT22;4203;48.144;14.118;2022-09-25T16:01:07;17.20;99.90
8332;DHT22;4203;48.144;14.118;2022-09-25T16:03:54;17.20;99.90
8332;DHT22;4203;48.144;14.118;2022-09-25T16:06:40;17.20;99.90
8332;DHT22;4203;48.144;14.118;2022-09-25T16:09:26;17.10;99.90
8332;DHT22;4203;48.144;14.118;2022-09-25T16:12:10;17.00;99.90
8332;DHT22;4203;48.144;14.118;2022-09-25T16:14:45;16.90;99.90
8332;DHT22;4203;48.144;14.118;2022-09-25T16:17:15;16.80;99.90
8332;DHT22;4203;48.144;14.118;2022-09-25T16:19:57;16.70;99.90
8332;DHT22;4203;48.144;14.118;2022-09-25T16:22:25;16.60;99.90
8332;DHT22;4203;48.144;14.118;2022-09-25T16:24:53;16.50;99.90
8332;DHT22;4203;48.144;14.118;2022-09-25T16:27:23;16.40;99.90